sensor_id;sensor_type;location;lat;lon;timestamp;P1;durP1;ratioP1;P2;durP2;ratioP2
72085;SDS011;64750;52.134;5.424;2023-05-23T00:01:03;11.05;;;6.03;;
72085;SDS011;64750;52.134;5.424;2023-05-23T00:03:32;9.13;;;5.77;;
72085;SDS011;64750;52.134;5.424;2023-05-23T00:06:00;10.30;;;5.70;;
72085;SDS011;64750;52.134;5.424;2023-05-23T00:08:26;13.82;;;6.68;;
72085;SDS011;64750;52.134;5.424;2023-05-23T00:10:53;13.05;;;6.20;;
72085;SDS011;64750;52.134;5.424;2023-05-23T00:13:19;14.88;;;6.70;;
72085;SDS011;64750;52.134;5.424;2023-05-23T00:15:46;12.27;;;7.40;;
72085;SDS011;64750;52.134;5.424;2023-05-23T00:18:13;10.45;;;6.50;;
72085;SDS011;64750;52.134;5.424;2023-05-23T00:20:41;10.07;;;6.72;;
72085;SDS011;64750;52.134;5.424;2023-05-23T00:23:08;14.32;;;7.55;;
72085;SDS011;64750;52.134;5.424;2023-05-23T00:25:36;15.90;;;7.53;;
72085;SDS011;64750;52.134;5.424;2023-05-23T00:28:03;16.80;;;7.23;;
72085;SDS011;64750;52.134;5.424;2023-05-23T00:30:31;11.27;;;6.80;;
72085;SDS011;64750;52.134;5.424;2023-05-23T00:32:59;10.18;;;6.35;;
72085;SDS011;64750;52.134;5.424;2023-05-23T00:35:25;11.30;;;6.88;;
72085;SDS011;64750;52.134;5.424;2023-05-23T00:37:52;12.65;;;6.68;;
72085;SDS011;64750;52.134;5.424;2023-05-23T00:40:20;13.10;;;7.13;;
72085;SDS011;64750;52.134;5.424;2023-05-23T00:42:47;8.98;;;6.82;;
72085;SDS011;64750;52.134;5.424;2023-05-23T00:45:14;14.25;;;6.75;;
72085;SDS011;64750;52.134;5.424;2023-05-23T00:47:42;11.15;;;7.18;;
72085;SDS011;64750;52.134;5.424;2023-05-23T00:50:10;8.98;;;6.50;;
72085;SDS011;64750;52.134;5.424;2023-05-23T00:52:39;9.37;;;5.70;;
72085;SDS011;64750;52.134;5.424;2023-05-23T00:55:07;8.77;;;5.82;;
72085;SDS011;64750;52.134;5.424;2023-05-23T00:57:34;10.38;;;5.45;;
72085;SDS011;64750;52.134;5.424;2023-05-23T01:00:06;8.68;;;5.72;;
72085;SDS011;64750;52.134;5.424;2023-05-23T01:02:39;7.50;;;4.88;;
72085;SDS011;64750;52.134;5.424;2023-05-23T01:05:11;6.37;;;5.10;;
72085;SDS011;64750;52.134;5.424;2023-05-23T01:07:46;7.53;;;4.93;;
72085;SDS011;64750;52.134;5.424;2023-05-23T01:10:16;8.52;;;4.57;;
72085;SDS011;64750;52.134;5.424;2023-05-23T01:18:26;5.03;;;4.53;;
72085;SDS011;64750;52.134;5.424;2023-05-23T01:21:00;5.30;;;4.80;;
72085;SDS011;64750;52.134;5.424;2023-05-23T01:23:47;5.40;;;4.60;;
72085;SDS011;64750;52.134;5.424;2023-05-23T01:29:28;4.60;;;4.13;;
72085;SDS011;64750;52.134;5.424;2023-05-23T01:31:58;5.47;;;4.70;;
72085;SDS011;64750;52.134;5.424;2023-05-23T01:34:27;5.13;;;4.60;;
72085;SDS011;64750;52.134;5.424;2023-05-23T01:36:55;5.82;;;4.60;;
72085;SDS011;64750;52.134;5.424;2023-05-23T01:39:22;5.20;;;4.68;;
72085;SDS011;64750;52.134;5.424;2023-05-23T01:41:49;6.50;;;4.47;;
72085;SDS011;64750;52.134;5.424;2023-05-23T01:44:16;4.53;;;4.10;;
72085;SDS011;64750;52.134;5.424;2023-05-23T01:46:46;4.47;;;4.07;;
72085;SDS011;64750;52.134;5.424;2023-05-23T01:49:13;6.63;;;4.85;;
72085;SDS011;64750;52.134;5.424;2023-05-23T01:51:43;5.50;;;4.55;;
72085;SDS011;64750;52.134;5.424;2023-05-23T01:54:11;5.55;;;4.65;;
72085;SDS011;64750;52.134;5.424;2023-05-23T01:56:39;6.23;;;4.73;;
72085;SDS011;64750;52.134;5.424;2023-05-23T01:59:08;7.35;;;4.90;;
72085;SDS011;64750;52.134;5.424;2023-05-23T02:01:34;5.43;;;4.72;;
72085;SDS011;64750;52.134;5.424;2023-05-23T02:04:02;8.65;;;5.38;;
72085;SDS011;64750;52.134;5.424;2023-05-23T02:06:29;8.20;;;5.07;;
72085;SDS011;64750;52.134;5.424;2023-05-23T02:08:57;6.00;;;4.57;;
72085;SDS011;64750;52.134;5.424;2023-05-23T02:11:23;13.40;;;4.80;;
72085;SDS011;64750;52.134;5.424;2023-05-23T02:13:50;5.95;;;4.10;;
72085;SDS011;64750;52.134;5.424;2023-05-23T02:16:17;5.35;;;4.45;;
72085;SDS011;64750;52.134;5.424;2023-05-23T02:18:43;12.20;;;5.50;;
72085;SDS011;64750;52.134;5.424;2023-05-23T02:21:11;6.03;;;4.60;;
72085;SDS011;64750;52.134;5.424;2023-05-23T02:23:38;6.35;;;4.20;;
72085;SDS011;64750;52.134;5.424;2023-05-23T02:26:04;5.55;;;4.90;;
72085;SDS011;64750;52.134;5.424;2023-05-23T02:28:30;11.75;;;4.55;;
72085;SDS011;64750;52.134;5.424;2023-05-23T02:30:57;9.63;;;5.53;;
72085;SDS011;64750;52.134;5.424;2023-05-23T02:33:23;9.27;;;4.90;;
72085;SDS011;64750;52.134;5.424;2023-05-23T02:35:50;10.52;;;5.05;;
72085;SDS011;64750;52.134;5.424;2023-05-23T02:38:17;7.88;;;4.70;;
72085;SDS011;64750;52.134;5.424;2023-05-23T02:40:45;7.00;;;4.50;;
72085;SDS011;64750;52.134;5.424;2023-05-23T02:43:12;8.32;;;4.30;;
72085;SDS011;64750;52.134;5.424;2023-05-23T02:45:38;6.07;;;4.73;;
72085;SDS011;64750;52.134;5.424;2023-05-23T02:48:05;6.55;;;4.68;;
72085;SDS011;64750;52.134;5.424;2023-05-23T02:50:31;9.43;;;4.47;;
72085;SDS011;64750;52.134;5.424;2023-05-23T02:52:58;7.45;;;4.40;;
72085;SDS011;64750;52.134;5.424;2023-05-23T02:55:24;7.07;;;4.45;;
72085;SDS011;64750;52.134;5.424;2023-05-23T02:57:51;6.67;;;4.40;;
72085;SDS011;64750;52.134;5.424;2023-05-23T03:00:17;9.60;;;4.20;;
72085;SDS011;64750;52.134;5.424;2023-05-23T03:02:44;6.97;;;4.55;;
72085;SDS011;64750;52.134;5.424;2023-05-23T03:05:11;13.40;;;4.47;;
72085;SDS011;64750;52.134;5.424;2023-05-23T03:07:37;8.15;;;4.22;;
72085;SDS011;64750;52.134;5.424;2023-05-23T03:10:04;6.50;;;4.73;;
72085;SDS011;64750;52.134;5.424;2023-05-23T03:12:31;11.68;;;5.20;;
72085;SDS011;64750;52.134;5.424;2023-05-23T03:14:58;11.52;;;5.13;;
72085;SDS011;64750;52.134;5.424;2023-05-23T03:17:24;8.85;;;4.53;;
72085;SDS011;64750;52.134;5.424;2023-05-23T03:19:51;11.55;;;4.93;;
72085;SDS011;64750;52.134;5.424;2023-05-23T03:22:17;13.37;;;4.97;;
72085;SDS011;64750;52.134;5.424;2023-05-23T03:24:44;11.30;;;4.75;;
72085;SDS011;64750;52.134;5.424;2023-05-23T03:27:10;13.18;;;4.57;;
72085;SDS011;64750;52.134;5.424;2023-05-23T03:29:37;8.00;;;4.57;;
72085;SDS011;64750;52.134;5.424;2023-05-23T03:32:03;15.25;;;4.70;;
72085;SDS011;64750;52.134;5.424;2023-05-23T03:34:30;11.47;;;5.17;;
72085;SDS011;64750;52.134;5.424;2023-05-23T03:36:58;10.80;;;5.60;;
72085;SDS011;64750;52.134;5.424;2023-05-23T03:39:25;15.18;;;5.80;;
72085;SDS011;64750;52.134;5.424;2023-05-23T03:41:51;13.00;;;5.45;;
72085;SDS011;64750;52.134;5.424;2023-05-23T03:44:18;15.70;;;5.53;;
72085;SDS011;64750;52.134;5.424;2023-05-23T03:46:44;11.10;;;5.53;;
72085;SDS011;64750;52.134;5.424;2023-05-23T03:49:11;20.92;;;7.00;;
72085;SDS011;64750;52.134;5.424;2023-05-23T03:51:37;9.07;;;5.18;;
72085;SDS011;64750;52.134;5.424;2023-05-23T03:54:04;14.05;;;5.47;;
72085;SDS011;64750;52.134;5.424;2023-05-23T03:56:30;14.75;;;5.68;;
72085;SDS011;64750;52.134;5.424;2023-05-23T03:58:57;18.67;;;6.33;;
72085;SDS011;64750;52.134;5.424;2023-05-23T04:01:23;14.55;;;5.20;;
72085;SDS011;64750;52.134;5.424;2023-05-23T04:03:50;14.73;;;5.53;;
72085;SDS011;64750;52.134;5.424;2023-05-23T04:06:18;14.65;;;5.90;;
72085;SDS011;64750;52.134;5.424;2023-05-23T04:08:45;13.30;;;5.30;;
72085;SDS011;64750;52.134;5.424;2023-05-23T04:11:11;20.80;;;5.17;;
72085;SDS011;64750;52.134;5.424;2023-05-23T04:13:38;13.05;;;5.00;;
72085;SDS011;64750;52.134;5.424;2023-05-23T04:16:04;13.68;;;5.18;;
72085;SDS011;64750;52.134;5.424;2023-05-23T04:18:31;14.07;;;4.93;;
72085;SDS011;64750;52.134;5.424;2023-05-23T04:21:04;9.20;;;4.57;;
72085;SDS011;64750;52.134;5.424;2023-05-23T04:23:30;15.13;;;5.20;;
72085;SDS011;64750;52.134;5.424;2023-05-23T04:25:57;17.23;;;5.53;;
72085;SDS011;64750;52.134;5.424;2023-05-23T04:28:24;13.43;;;4.50;;
72085;SDS011;64750;52.134;5.424;2023-05-23T04:30:52;10.70;;;4.30;;
72085;SDS011;64750;52.134;5.424;2023-05-23T04:33:19;15.82;;;4.50;;
72085;SDS011;64750;52.134;5.424;2023-05-23T04:35:45;12.17;;;4.10;;
72085;SDS011;64750;52.134;5.424;2023-05-23T04:38:12;10.68;;;3.55;;
72085;SDS011;64750;52.134;5.424;2023-05-23T04:40:38;6.93;;;3.40;;
72085;SDS011;64750;52.134;5.424;2023-05-23T04:43:08;7.05;;;3.13;;
72085;SDS011;64750;52.134;5.424;2023-05-23T04:45:35;6.90;;;2.88;;
72085;SDS011;64750;52.134;5.424;2023-05-23T04:48:06;11.47;;;3.47;;
72085;SDS011;64750;52.134;5.424;2023-05-23T04:50:33;6.88;;;2.90;;
72085;SDS011;64750;52.134;5.424;2023-05-23T04:53:01;10.55;;;3.10;;
72085;SDS011;64750;52.134;5.424;2023-05-23T04:55:27;9.15;;;3.33;;
72085;SDS011;64750;52.134;5.424;2023-05-23T04:57:53;12.20;;;3.53;;
72085;SDS011;64750;52.134;5.424;2023-05-23T05:00:20;7.43;;;3.63;;
72085;SDS011;64750;52.134;5.424;2023-05-23T05:02:46;9.23;;;2.80;;
72085;SDS011;64750;52.134;5.424;2023-05-23T05:05:13;10.88;;;3.40;;
72085;SDS011;64750;52.134;5.424;2023-05-23T05:07:40;11.38;;;3.60;;
72085;SDS011;64750;52.134;5.424;2023-05-23T05:10:06;9.73;;;3.22;;
72085;SDS011;64750;52.134;5.424;2023-05-23T05:12:34;4.70;;;2.77;;
72085;SDS011;64750;52.134;5.424;2023-05-23T05:15:01;6.95;;;3.15;;
72085;SDS011;64750;52.134;5.424;2023-05-23T05:17:28;9.60;;;3.15;;
72085;SDS011;64750;52.134;5.424;2023-05-23T05:19:55;13.40;;;3.25;;
72085;SDS011;64750;52.134;5.424;2023-05-23T05:22:22;7.63;;;3.90;;
72085;SDS011;64750;52.134;5.424;2023-05-23T05:24:48;5.33;;;2.70;;
72085;SDS011;64750;52.134;5.424;2023-05-23T05:27:14;8.73;;;3.08;;
72085;SDS011;64750;52.134;5.424;2023-05-23T05:29:41;11.25;;;2.83;;
72085;SDS011;64750;52.134;5.424;2023-05-23T05:32:07;9.15;;;3.05;;
72085;SDS011;64750;52.134;5.424;2023-05-23T05:34:34;10.57;;;2.55;;
72085;SDS011;64750;52.134;5.424;2023-05-23T05:37:02;9.13;;;3.07;;
72085;SDS011;64750;52.134;5.424;2023-05-23T05:39:29;10.50;;;2.72;;
72085;SDS011;64750;52.134;5.424;2023-05-23T05:41:55;10.20;;;2.90;;
72085;SDS011;64750;52.134;5.424;2023-05-23T05:44:22;6.63;;;3.03;;
72085;SDS011;64750;52.134;5.424;2023-05-23T05:46:48;12.10;;;3.38;;
72085;SDS011;64750;52.134;5.424;2023-05-23T05:49:15;7.67;;;3.37;;
72085;SDS011;64750;52.134;5.424;2023-05-23T05:51:41;9.68;;;3.58;;
72085;SDS011;64750;52.134;5.424;2023-05-23T05:54:08;8.20;;;3.17;;
72085;SDS011;64750;52.134;5.424;2023-05-23T05:56:34;7.57;;;3.50;;
72085;SDS011;64750;52.134;5.424;2023-05-23T05:59:01;8.38;;;3.50;;
72085;SDS011;64750;52.134;5.424;2023-05-23T06:01:27;8.53;;;3.57;;
72085;SDS011;64750;52.134;5.424;2023-05-23T06:03:54;9.32;;;3.78;;
72085;SDS011;64750;52.134;5.424;2023-05-23T06:06:20;5.45;;;3.72;;
72085;SDS011;64750;52.134;5.424;2023-05-23T06:08:47;8.82;;;3.65;;
72085;SDS011;64750;52.134;5.424;2023-05-23T06:11:14;8.75;;;3.63;;
72085;SDS011;64750;52.134;5.424;2023-05-23T06:13:40;9.10;;;4.10;;
72085;SDS011;64750;52.134;5.424;2023-05-23T06:16:07;7.13;;;4.18;;
72085;SDS011;64750;52.134;5.424;2023-05-23T06:18:34;7.85;;;4.07;;
72085;SDS011;64750;52.134;5.424;2023-05-23T06:21:00;6.63;;;3.20;;
72085;SDS011;64750;52.134;5.424;2023-05-23T06:23:27;9.93;;;3.83;;
72085;SDS011;64750;52.134;5.424;2023-05-23T06:25:54;7.50;;;3.73;;
72085;SDS011;64750;52.134;5.424;2023-05-23T06:28:21;10.23;;;4.47;;
72085;SDS011;64750;52.134;5.424;2023-05-23T06:30:48;9.77;;;4.70;;
72085;SDS011;64750;52.134;5.424;2023-05-23T06:33:14;9.63;;;4.28;;
72085;SDS011;64750;52.134;5.424;2023-05-23T06:35:42;11.40;;;4.40;;
72085;SDS011;64750;52.134;5.424;2023-05-23T06:38:08;10.83;;;3.80;;
72085;SDS011;64750;52.134;5.424;2023-05-23T06:40:34;8.07;;;3.45;;
72085;SDS011;64750;52.134;5.424;2023-05-23T06:43:01;8.48;;;4.47;;
72085;SDS011;64750;52.134;5.424;2023-05-23T06:45:27;11.70;;;3.80;;
72085;SDS011;64750;52.134;5.424;2023-05-23T06:47:54;9.38;;;3.35;;
72085;SDS011;64750;52.134;5.424;2023-05-23T06:50:21;8.57;;;3.73;;
72085;SDS011;64750;52.134;5.424;2023-05-23T06:52:47;8.02;;;3.45;;
72085;SDS011;64750;52.134;5.424;2023-05-23T06:55:14;7.40;;;3.70;;
72085;SDS011;64750;52.134;5.424;2023-05-23T06:57:44;6.80;;;3.00;;
72085;SDS011;64750;52.134;5.424;2023-05-23T07:00:12;6.10;;;3.47;;
72085;SDS011;64750;52.134;5.424;2023-05-23T07:02:41;9.33;;;2.93;;
72085;SDS011;64750;52.134;5.424;2023-05-23T07:05:08;6.80;;;2.65;;
72085;SDS011;64750;52.134;5.424;2023-05-23T07:07:34;5.25;;;2.42;;
72085;SDS011;64750;52.134;5.424;2023-05-23T07:10:01;6.50;;;2.78;;
72085;SDS011;64750;52.134;5.424;2023-05-23T07:12:27;6.07;;;2.40;;
72085;SDS011;64750;52.134;5.424;2023-05-23T07:14:54;7.10;;;2.43;;
72085;SDS011;64750;52.134;5.424;2023-05-23T07:17:20;4.15;;;1.80;;
72085;SDS011;64750;52.134;5.424;2023-05-23T07:19:47;7.25;;;1.98;;
72085;SDS011;64750;52.134;5.424;2023-05-23T07:22:14;6.32;;;1.52;;
72085;SDS011;64750;52.134;5.424;2023-05-23T07:24:40;8.20;;;1.85;;
72085;SDS011;64750;52.134;5.424;2023-05-23T07:27:07;5.83;;;1.77;;
72085;SDS011;64750;52.134;5.424;2023-05-23T07:29:33;7.78;;;1.90;;
72085;SDS011;64750;52.134;5.424;2023-05-23T07:32:00;10.00;;;1.48;;
72085;SDS011;64750;52.134;5.424;2023-05-23T07:34:26;5.10;;;1.70;;
72085;SDS011;64750;52.134;5.424;2023-05-23T07:36:53;13.75;;;2.38;;
72085;SDS011;64750;52.134;5.424;2023-05-23T07:39:19;7.57;;;1.87;;
72085;SDS011;64750;52.134;5.424;2023-05-23T07:41:47;5.85;;;1.27;;
72085;SDS011;64750;52.134;5.424;2023-05-23T07:44:15;10.32;;;2.15;;
72085;SDS011;64750;52.134;5.424;2023-05-23T07:46:41;11.10;;;1.50;;
72085;SDS011;64750;52.134;5.424;2023-05-23T07:49:08;6.45;;;1.60;;
72085;SDS011;64750;52.134;5.424;2023-05-23T07:51:35;6.20;;;1.57;;
72085;SDS011;64750;52.134;5.424;2023-05-23T07:54:01;8.00;;;1.45;;
72085;SDS011;64750;52.134;5.424;2023-05-23T07:56:27;9.60;;;1.98;;
72085;SDS011;64750;52.134;5.424;2023-05-23T07:58:54;7.03;;;1.50;;
72085;SDS011;64750;52.134;5.424;2023-05-23T08:01:20;6.47;;;2.10;;
72085;SDS011;64750;52.134;5.424;2023-05-23T08:03:47;7.97;;;1.50;;
72085;SDS011;64750;52.134;5.424;2023-05-23T08:06:14;8.82;;;2.28;;
72085;SDS011;64750;52.134;5.424;2023-05-23T08:08:40;10.05;;;1.80;;
72085;SDS011;64750;52.134;5.424;2023-05-23T08:11:08;12.30;;;1.50;;
72085;SDS011;64750;52.134;5.424;2023-05-23T08:13:35;17.77;;;2.63;;
72085;SDS011;64750;52.134;5.424;2023-05-23T08:16:01;13.30;;;2.17;;
72085;SDS011;64750;52.134;5.424;2023-05-23T08:18:28;9.10;;;1.70;;
72085;SDS011;64750;52.134;5.424;2023-05-23T08:20:56;7.60;;;1.63;;
72085;SDS011;64750;52.134;5.424;2023-05-23T08:23:22;12.10;;;1.80;;
72085;SDS011;64750;52.134;5.424;2023-05-23T08:25:49;5.57;;;1.40;;
72085;SDS011;64750;52.134;5.424;2023-05-23T08:28:15;11.07;;;1.53;;
72085;SDS011;64750;52.134;5.424;2023-05-23T08:30:42;11.82;;;1.63;;
72085;SDS011;64750;52.134;5.424;2023-05-23T08:33:08;8.18;;;1.70;;
72085;SDS011;64750;52.134;5.424;2023-05-23T08:35:35;4.13;;;1.40;;
72085;SDS011;64750;52.134;5.424;2023-05-23T08:38:04;8.80;;;1.52;;
72085;SDS011;64750;52.134;5.424;2023-05-23T08:40:33;9.47;;;1.67;;
72085;SDS011;64750;52.134;5.424;2023-05-23T08:43:01;10.32;;;2.08;;
72085;SDS011;64750;52.134;5.424;2023-05-23T08:45:28;8.57;;;1.75;;
72085;SDS011;64750;52.134;5.424;2023-05-23T08:47:55;5.93;;;1.48;;
72085;SDS011;64750;52.134;5.424;2023-05-23T08:50:26;7.43;;;1.98;;
72085;SDS011;64750;52.134;5.424;2023-05-23T08:55:26;9.18;;;1.83;;
72085;SDS011;64750;52.134;5.424;2023-05-23T08:57:54;15.02;;;2.60;;
72085;SDS011;64750;52.134;5.424;2023-05-23T09:00:23;14.15;;;3.20;;
72085;SDS011;64750;52.134;5.424;2023-05-23T09:02:50;9.45;;;2.50;;
72085;SDS011;64750;52.134;5.424;2023-05-23T09:05:17;11.07;;;1.80;;
72085;SDS011;64750;52.134;5.424;2023-05-23T09:07:44;8.60;;;2.33;;
72085;SDS011;64750;52.134;5.424;2023-05-23T09:10:16;9.50;;;2.17;;
72085;SDS011;64750;52.134;5.424;2023-05-23T09:12:45;13.35;;;1.90;;
72085;SDS011;64750;52.134;5.424;2023-05-23T09:15:12;7.93;;;1.73;;
72085;SDS011;64750;52.134;5.424;2023-05-23T09:17:39;6.67;;;1.40;;
72085;SDS011;64750;52.134;5.424;2023-05-23T09:20:09;4.55;;;1.65;;
72085;SDS011;64750;52.134;5.424;2023-05-23T09:22:37;9.05;;;2.70;;
72085;SDS011;64750;52.134;5.424;2023-05-23T09:25:04;8.40;;;2.58;;
72085;SDS011;64750;52.134;5.424;2023-05-23T09:27:32;7.40;;;1.80;;
72085;SDS011;64750;52.134;5.424;2023-05-23T09:30:03;6.87;;;1.77;;
72085;SDS011;64750;52.134;5.424;2023-05-23T09:32:31;6.32;;;1.23;;
72085;SDS011;64750;52.134;5.424;2023-05-23T09:34:58;5.43;;;2.00;;
72085;SDS011;64750;52.134;5.424;2023-05-23T09:37:38;9.02;;;2.03;;
72085;SDS011;64750;52.134;5.424;2023-05-23T09:40:09;9.63;;;1.80;;
72085;SDS011;64750;52.134;5.424;2023-05-23T09:42:42;9.77;;;2.07;;
72085;SDS011;64750;52.134;5.424;2023-05-23T09:45:09;14.70;;;2.00;;
72085;SDS011;64750;52.134;5.424;2023-05-23T09:47:36;7.50;;;2.00;;
72085;SDS011;64750;52.134;5.424;2023-05-23T09:50:03;9.50;;;1.80;;
72085;SDS011;64750;52.134;5.424;2023-05-23T09:52:36;8.25;;;2.30;;
72085;SDS011;64750;52.134;5.424;2023-05-23T09:55:04;6.13;;;1.60;;
72085;SDS011;64750;52.134;5.424;2023-05-23T09:57:35;9.95;;;1.63;;
72085;SDS011;64750;52.134;5.424;2023-05-23T10:00:06;8.13;;;1.60;;
72085;SDS011;64750;52.134;5.424;2023-05-23T10:05:32;5.65;;;1.65;;
72085;SDS011;64750;52.134;5.424;2023-05-23T10:08:03;10.00;;;1.60;;
72085;SDS011;64750;52.134;5.424;2023-05-23T10:10:33;16.73;;;2.40;;
72085;SDS011;64750;52.134;5.424;2023-05-23T10:13:16;6.75;;;1.58;;
72085;SDS011;64750;52.134;5.424;2023-05-23T10:15:43;5.57;;;1.98;;
72085;SDS011;64750;52.134;5.424;2023-05-23T10:18:23;10.80;;;1.63;;
72085;SDS011;64750;52.134;5.424;2023-05-23T10:20:55;13.33;;;1.93;;
72085;SDS011;64750;52.134;5.424;2023-05-23T10:23:27;8.90;;;1.95;;
72085;SDS011;64750;52.134;5.424;2023-05-23T10:25:54;9.00;;;1.70;;
72085;SDS011;64750;52.134;5.424;2023-05-23T10:28:21;10.75;;;1.75;;
72085;SDS011;64750;52.134;5.424;2023-05-23T10:30:48;12.13;;;2.95;;
72085;SDS011;64750;52.134;5.424;2023-05-23T10:33:14;6.20;;;2.10;;
72085;SDS011;64750;52.134;5.424;2023-05-23T10:35:59;10.95;;;1.92;;
72085;SDS011;64750;52.134;5.424;2023-05-23T10:43:42;6.85;;;1.73;;
72085;SDS011;64750;52.134;5.424;2023-05-23T10:46:12;6.60;;;1.87;;
72085;SDS011;64750;52.134;5.424;2023-05-23T10:48:40;7.22;;;1.42;;
72085;SDS011;64750;52.134;5.424;2023-05-23T10:51:09;10.48;;;1.40;;
72085;SDS011;64750;52.134;5.424;2023-05-23T10:53:38;7.32;;;1.77;;
72085;SDS011;64750;52.134;5.424;2023-05-23T10:56:09;13.13;;;2.38;;
72085;SDS011;64750;52.134;5.424;2023-05-23T10:58:55;8.97;;;1.50;;
72085;SDS011;64750;52.134;5.424;2023-05-23T11:01:23;4.60;;;1.58;;
72085;SDS011;64750;52.134;5.424;2023-05-23T11:03:51;8.82;;;1.88;;
72085;SDS011;64750;52.134;5.424;2023-05-23T11:06:42;8.50;;;1.88;;
72085;SDS011;64750;52.134;5.424;2023-05-23T11:09:10;7.70;;;2.05;;
72085;SDS011;64750;52.134;5.424;2023-05-23T11:16:59;10.43;;;1.58;;
72085;SDS011;64750;52.134;5.424;2023-05-23T11:19:41;9.48;;;1.95;;
72085;SDS011;64750;52.134;5.424;2023-05-23T11:22:21;4.40;;;1.08;;
72085;SDS011;64750;52.134;5.424;2023-05-23T11:24:53;4.43;;;1.37;;
72085;SDS011;64750;52.134;5.424;2023-05-23T11:30:01;7.03;;;1.27;;
72085;SDS011;64750;52.134;5.424;2023-05-23T11:32:30;3.92;;;1.27;;
72085;SDS011;64750;52.134;5.424;2023-05-23T11:35:00;12.15;;;1.60;;
72085;SDS011;64750;52.134;5.424;2023-05-23T11:37:28;7.73;;;1.50;;
72085;SDS011;64750;52.134;5.424;2023-05-23T11:39:56;7.05;;;1.52;;
72085;SDS011;64750;52.134;5.424;2023-05-23T11:42:23;11.32;;;1.80;;
72085;SDS011;64750;52.134;5.424;2023-05-23T11:44:50;6.25;;;2.47;;
72085;SDS011;64750;52.134;5.424;2023-05-23T11:47:17;6.05;;;1.80;;
72085;SDS011;64750;52.134;5.424;2023-05-23T11:49:45;4.87;;;1.53;;
72085;SDS011;64750;52.134;5.424;2023-05-23T11:52:12;6.18;;;1.52;;
72085;SDS011;64750;52.134;5.424;2023-05-23T11:54:39;8.23;;;1.60;;
72085;SDS011;64750;52.134;5.424;2023-05-23T11:57:07;6.10;;;1.77;;
72085;SDS011;64750;52.134;5.424;2023-05-23T11:59:35;8.77;;;1.65;;
72085;SDS011;64750;52.134;5.424;2023-05-23T12:02:04;11.40;;;1.70;;
72085;SDS011;64750;52.134;5.424;2023-05-23T12:04:33;6.40;;;1.42;;
72085;SDS011;64750;52.134;5.424;2023-05-23T12:07:03;4.53;;;1.20;;
72085;SDS011;64750;52.134;5.424;2023-05-23T12:09:30;7.20;;;1.52;;
72085;SDS011;64750;52.134;5.424;2023-05-23T12:11:56;5.38;;;1.30;;
72085;SDS011;64750;52.134;5.424;2023-05-23T12:14:23;6.83;;;1.17;;
72085;SDS011;64750;52.134;5.424;2023-05-23T12:16:54;9.63;;;1.85;;
72085;SDS011;64750;52.134;5.424;2023-05-23T12:19:20;5.38;;;1.15;;
72085;SDS011;64750;52.134;5.424;2023-05-23T12:21:47;4.35;;;0.75;;
72085;SDS011;64750;52.134;5.424;2023-05-23T12:24:15;7.13;;;1.20;;
72085;SDS011;64750;52.134;5.424;2023-05-23T12:26:46;3.77;;;1.40;;
72085;SDS011;64750;52.134;5.424;2023-05-23T12:29:17;6.15;;;1.60;;
72085;SDS011;64750;52.134;5.424;2023-05-23T12:32:04;7.70;;;1.30;;
72085;SDS011;64750;52.134;5.424;2023-05-23T12:34:32;7.60;;;1.33;;
72085;SDS011;64750;52.134;5.424;2023-05-23T12:36:59;9.40;;;2.15;;
72085;SDS011;64750;52.134;5.424;2023-05-23T12:39:44;8.73;;;1.63;;
72085;SDS011;64750;52.134;5.424;2023-05-23T12:42:10;6.85;;;1.45;;
72085;SDS011;64750;52.134;5.424;2023-05-23T12:44:39;5.72;;;0.80;;
72085;SDS011;64750;52.134;5.424;2023-05-23T12:47:07;9.43;;;1.27;;
72085;SDS011;64750;52.134;5.424;2023-05-23T12:49:33;4.88;;;1.55;;
72085;SDS011;64750;52.134;5.424;2023-05-23T12:52:00;5.33;;;1.07;;
72085;SDS011;64750;52.134;5.424;2023-05-23T12:54:26;6.30;;;1.55;;
72085;SDS011;64750;52.134;5.424;2023-05-23T12:56:52;3.10;;;1.10;;
72085;SDS011;64750;52.134;5.424;2023-05-23T12:59:19;5.60;;;1.42;;
72085;SDS011;64750;52.134;5.424;2023-05-23T13:01:45;9.68;;;1.75;;
72085;SDS011;64750;52.134;5.424;2023-05-23T13:04:12;8.53;;;1.40;;
72085;SDS011;64750;52.134;5.424;2023-05-23T13:06:39;3.15;;;1.40;;
72085;SDS011;64750;52.134;5.424;2023-05-23T13:09:08;9.07;;;1.65;;
72085;SDS011;64750;52.134;5.424;2023-05-23T13:11:35;6.65;;;1.60;;
72085;SDS011;64750;52.134;5.424;2023-05-23T13:14:03;4.38;;;1.00;;
72085;SDS011;64750;52.134;5.424;2023-05-23T13:16:29;5.70;;;1.20;;
72085;SDS011;64750;52.134;5.424;2023-05-23T13:18:56;7.65;;;1.30;;
72085;SDS011;64750;52.134;5.424;2023-05-23T13:21:22;4.22;;;1.58;;
72085;SDS011;64750;52.134;5.424;2023-05-23T13:23:49;8.90;;;1.35;;
72085;SDS011;64750;52.134;5.424;2023-05-23T13:26:15;6.65;;;1.30;;
72085;SDS011;64750;52.134;5.424;2023-05-23T13:28:42;4.30;;;1.27;;
72085;SDS011;64750;52.134;5.424;2023-05-23T13:31:08;14.73;;;1.70;;
72085;SDS011;64750;52.134;5.424;2023-05-23T13:33:35;9.38;;;1.80;;
72085;SDS011;64750;52.134;5.424;2023-05-23T13:36:02;6.90;;;1.25;;
72085;SDS011;64750;52.134;5.424;2023-05-23T13:38:29;7.25;;;2.28;;
72085;SDS011;64750;52.134;5.424;2023-05-23T13:40:57;5.37;;;1.67;;
72085;SDS011;64750;52.134;5.424;2023-05-23T13:43:23;6.85;;;1.33;;
72085;SDS011;64750;52.134;5.424;2023-05-23T13:45:50;6.78;;;1.55;;
72085;SDS011;64750;52.134;5.424;2023-05-23T13:48:16;6.57;;;1.05;;
72085;SDS011;64750;52.134;5.424;2023-05-23T13:50:43;5.53;;;1.05;;
72085;SDS011;64750;52.134;5.424;2023-05-23T13:53:10;5.63;;;1.50;;
72085;SDS011;64750;52.134;5.424;2023-05-23T13:55:41;6.10;;;1.08;;
72085;SDS011;64750;52.134;5.424;2023-05-23T13:58:10;7.38;;;1.05;;
72085;SDS011;64750;52.134;5.424;2023-05-23T14:00:36;3.00;;;0.85;;
72085;SDS011;64750;52.134;5.424;2023-05-23T14:03:03;9.77;;;1.17;;
72085;SDS011;64750;52.134;5.424;2023-05-23T14:05:30;7.37;;;1.30;;
72085;SDS011;64750;52.134;5.424;2023-05-23T14:07:56;2.63;;;1.05;;
72085;SDS011;64750;52.134;5.424;2023-05-23T14:10:23;1.67;;;0.70;;
72085;SDS011;64750;52.134;5.424;2023-05-23T14:12:49;4.82;;;1.52;;
72085;SDS011;64750;52.134;5.424;2023-05-23T14:15:16;4.30;;;0.93;;
72085;SDS011;64750;52.134;5.424;2023-05-23T14:17:43;6.03;;;1.20;;
72085;SDS011;64750;52.134;5.424;2023-05-23T14:20:10;7.32;;;1.70;;
72085;SDS011;64750;52.134;5.424;2023-05-23T14:22:36;8.40;;;1.27;;
72085;SDS011;64750;52.134;5.424;2023-05-23T14:25:03;7.72;;;1.15;;
72085;SDS011;64750;52.134;5.424;2023-05-23T14:27:31;8.77;;;1.77;;
72085;SDS011;64750;52.134;5.424;2023-05-23T14:29:58;8.37;;;1.40;;
72085;SDS011;64750;52.134;5.424;2023-05-23T14:32:25;5.25;;;1.15;;
72085;SDS011;64750;52.134;5.424;2023-05-23T14:34:52;4.97;;;1.33;;
72085;SDS011;64750;52.134;5.424;2023-05-23T14:37:18;2.20;;;0.95;;
72085;SDS011;64750;52.134;5.424;2023-05-23T14:39:44;7.10;;;1.40;;
72085;SDS011;64750;52.134;5.424;2023-05-23T14:42:11;7.30;;;1.40;;
72085;SDS011;64750;52.134;5.424;2023-05-23T14:44:38;3.63;;;1.15;;
72085;SDS011;64750;52.134;5.424;2023-05-23T14:47:04;3.22;;;1.40;;
72085;SDS011;64750;52.134;5.424;2023-05-23T14:49:31;3.85;;;1.23;;
72085;SDS011;64750;52.134;5.424;2023-05-23T14:51:57;5.18;;;1.50;;
72085;SDS011;64750;52.134;5.424;2023-05-23T14:54:24;4.00;;;1.07;;
72085;SDS011;64750;52.134;5.424;2023-05-23T14:56:51;6.18;;;1.45;;
72085;SDS011;64750;52.134;5.424;2023-05-23T14:59:18;6.60;;;1.42;;
72085;SDS011;64750;52.134;5.424;2023-05-23T15:01:45;7.47;;;1.38;;
72085;SDS011;64750;52.134;5.424;2023-05-23T15:04:11;7.00;;;1.23;;
72085;SDS011;64750;52.134;5.424;2023-05-23T15:06:39;5.33;;;1.10;;
72085;SDS011;64750;52.134;5.424;2023-05-23T15:09:06;6.25;;;1.05;;
72085;SDS011;64750;52.134;5.424;2023-05-23T15:11:35;4.97;;;1.33;;
72085;SDS011;64750;52.134;5.424;2023-05-23T15:14:04;3.50;;;1.17;;